UAE9911 DNMM-SBGR
Flight info
| Callsign | UAE9911 |
|---|---|
| Flight time | N/A |
| Altitude | 32000 |
| Route | TYE UY87 KIDNI UA560 INAKA DCT IPEKA UA560 ARLEM DCT 0110W DCT ATANI DCT ANPIR/N0489F340 UN548 VRI UN401 SIDUR UZ10 EDMUS |
| Aircraft | B77L/H-SDE1E2E3FGHIJ2J3J4J5M1RWXY/LB1D1 |
Departure
| Time | 2026-04-28 09:59 |
|---|---|
| Airport | Murtala Muhammed International Airport (DNMM) |
Arrival
| Time | N/A |
|---|---|
| Airport | São Paulo/Guarulhos–Governor André Franco Montoro International Airport (SBGR) |
| Time | Latitude | Longitude | Altitude | Speed | Heading |
|---|---|---|---|---|---|
| 2026-04-28 09:21 | 6.56883 | 3.31776 | 69 ft | 0 kts | 89° |
| 2026-04-28 09:45 | 6.56883 | 3.31761 | 66 ft | 3 kts | 89° |
| 2026-04-28 09:46 | 6.56883 | 3.31747 | 72 ft | 3 kts | 89° |
| 2026-04-28 09:46 | 6.56882 | 3.31727 | 71 ft | 3 kts | 89° |
| 2026-04-28 09:46 | 6.56882 | 3.31712 | 70 ft | 3 kts | 96° |
| 2026-04-28 09:46 | 6.56886 | 3.31695 | 69 ft | 3 kts | 140° |
| 2026-04-28 09:47 | 6.56902 | 3.31689 | 66 ft | 3 kts | 181° |
| 2026-04-28 09:47 | 6.56918 | 3.31689 | 66 ft | 1 kts | 179° |
| 2026-04-28 09:47 | 6.56919 | 3.31689 | 66 ft | 0 kts | 179° |
| 2026-04-28 09:50 | 6.56913 | 3.31689 | 67 ft | 3 kts | 179° |
| 2026-04-28 09:50 | 6.56878 | 3.31682 | 65 ft | 6 kts | 210° |
| 2026-04-28 09:50 | 6.56859 | 3.31647 | 72 ft | 6 kts | 253° |
| 2026-04-28 09:51 | 6.56856 | 3.31599 | 74 ft | 8 kts | 270° |
| 2026-04-28 09:51 | 6.56874 | 3.31547 | 64 ft | 8 kts | 317° |
| 2026-04-28 09:51 | 6.56931 | 3.31538 | 74 ft | 8 kts | 360° |
| 2026-04-28 09:51 | 6.56990 | 3.31538 | 73 ft | 9 kts | 0° |
| 2026-04-28 09:52 | 6.57056 | 3.31538 | 73 ft | 10 kts | 360° |
| 2026-04-28 09:52 | 6.57137 | 3.31538 | 70 ft | 13 kts | 359° |
| 2026-04-28 09:52 | 6.57232 | 3.31536 | 68 ft | 14 kts | 359° |
| 2026-04-28 09:52 | 6.57332 | 3.31535 | 66 ft | 15 kts | 359° |
| 2026-04-28 09:53 | 6.57441 | 3.31534 | 63 ft | 16 kts | 359° |
| 2026-04-28 09:53 | 6.57557 | 3.31532 | 56 ft | 17 kts | 359° |
| 2026-04-28 09:53 | 6.57675 | 3.31531 | 61 ft | 17 kts | 359° |
| 2026-04-28 09:53 | 6.57792 | 3.31530 | 62 ft | 17 kts | 359° |
| 2026-04-28 09:54 | 6.57909 | 3.31528 | 61 ft | 17 kts | 359° |
| 2026-04-28 09:54 | 6.58027 | 3.31527 | 60 ft | 17 kts | 359° |
| 2026-04-28 09:54 | 6.58144 | 3.31525 | 62 ft | 17 kts | 359° |
| 2026-04-28 09:54 | 6.58261 | 3.31524 | 63 ft | 17 kts | 359° |
| 2026-04-28 09:55 | 6.58378 | 3.31522 | 65 ft | 17 kts | 359° |
| 2026-04-28 09:55 | 6.58495 | 3.31521 | 67 ft | 17 kts | 359° |
| 2026-04-28 09:55 | 6.58612 | 3.31520 | 68 ft | 17 kts | 359° |
| 2026-04-28 09:55 | 6.58728 | 3.31519 | 70 ft | 14 kts | 359° |
| 2026-04-28 09:56 | 6.58801 | 3.31495 | 69 ft | 11 kts | 311° |
| 2026-04-28 09:56 | 6.58810 | 3.31417 | 67 ft | 11 kts | 268° |
| 2026-04-28 09:56 | 6.58796 | 3.31374 | 70 ft | 0 kts | 239° |
| 2026-04-28 09:57 | 6.58788 | 3.31360 | 64 ft | 5 kts | 239° |
| 2026-04-28 09:57 | 6.58762 | 3.31321 | 70 ft | 7 kts | 223° |
| 2026-04-28 09:58 | 6.58709 | 3.31316 | 74 ft | 12 kts | 180° |
| 2026-04-28 09:58 | 6.58447 | 3.31319 | 64 ft | 74 kts | 179° |
| 2026-04-28 09:58 | 6.57685 | 3.31328 | 60 ft | 143 kts | 179° |
| 2026-04-28 09:58 | 6.56495 | 3.31342 | 96 ft | 194 kts | 179° |
| 2026-04-28 09:59 | 6.55135 | 3.31354 | 675 ft | 195 kts | 180° |
| 2026-04-28 09:59 | 6.53784 | 3.31378 | 1327 ft | 195 kts | 179° |
| 2026-04-28 09:59 | 6.52410 | 3.31145 | 1509 ft | 210 kts | 212° |
| 2026-04-28 09:59 | 6.51517 | 3.30035 | 1865 ft | 213 kts | 256° |
| 2026-04-28 10:00 | 6.51465 | 3.28540 | 2233 ft | 215 kts | 274° |
| 2026-04-28 10:00 | 6.51531 | 3.27038 | 2734 ft | 216 kts | 270° |
| 2026-04-28 10:00 | 6.51527 | 3.25526 | 3254 ft | 216 kts | 268° |
| 2026-04-28 10:00 | 6.51493 | 3.24008 | 3714 ft | 219 kts | 268° |
| 2026-04-28 10:01 | 6.51443 | 3.22462 | 4104 ft | 227 kts | 267° |
| 2026-04-28 10:01 | 6.51353 | 3.20799 | 4226 ft | 250 kts | 266° |
| 2026-04-28 10:01 | 6.51251 | 3.18984 | 4440 ft | 268 kts | 267° |
| 2026-04-28 10:01 | 6.51147 | 3.17075 | 4907 ft | 278 kts | 267° |
| 2026-04-28 10:02 | 6.51043 | 3.15107 | 5431 ft | 286 kts | 267° |
| 2026-04-28 10:02 | 6.50939 | 3.13088 | 5975 ft | 292 kts | 267° |
| 2026-04-28 10:02 | 6.50834 | 3.11028 | 6528 ft | 298 kts | 267° |
| 2026-04-28 10:02 | 6.50727 | 3.08926 | 7065 ft | 303 kts | 267° |
| 2026-04-28 10:03 | 6.50625 | 3.06790 | 7600 ft | 309 kts | 267° |
| 2026-04-28 10:03 | 6.50527 | 3.04616 | 8153 ft | 313 kts | 267° |
| 2026-04-28 10:03 | 6.50427 | 3.02409 | 8679 ft | 319 kts | 267° |
| 2026-04-28 10:03 | 6.50325 | 3.00163 | 9201 ft | 324 kts | 267° |
| 2026-04-28 10:04 | 6.50221 | 2.97882 | 9754 ft | 329 kts | 267° |
| 2026-04-28 10:04 | 6.50116 | 2.95568 | 10234 ft | 335 kts | 267° |
| 2026-04-28 10:04 | 6.50006 | 2.93169 | 10415 ft | 354 kts | 266° |
| 2026-04-28 10:04 | 6.49890 | 2.90666 | 10570 ft | 373 kts | 267° |
| 2026-04-28 10:05 | 6.49767 | 2.87996 | 10718 ft | 392 kts | 267° |
| 2026-04-28 10:05 | 6.49639 | 2.85193 | 10974 ft | 408 kts | 267° |
| 2026-04-28 10:05 | 6.49507 | 2.82318 | 11479 ft | 415 kts | 267° |
| 2026-04-28 10:05 | 6.49373 | 2.79407 | 12129 ft | 418 kts | 266° |
| 2026-04-28 10:06 | 6.49238 | 2.76481 | 12873 ft | 419 kts | 266° |
| 2026-04-28 10:06 | 6.48871 | 2.73591 | 13440 ft | 418 kts | 253° |
| 2026-04-28 10:06 | 6.47897 | 2.70825 | 13951 ft | 422 kts | 246° |
| 2026-04-28 10:06 | 6.46803 | 2.68083 | 14568 ft | 423 kts | 246° |
| 2026-04-28 10:07 | 6.45722 | 2.65322 | 15215 ft | 425 kts | 247° |
| 2026-04-28 10:07 | 6.44665 | 2.62540 | 15783 ft | 428 kts | 248° |
| 2026-04-28 10:07 | 6.43621 | 2.59726 | 16334 ft | 431 kts | 248° |
| 2026-04-28 10:07 | 6.42582 | 2.56883 | 16895 ft | 434 kts | 249° |
| 2026-04-28 10:08 | 6.41543 | 2.54021 | 17455 ft | 437 kts | 249° |
| 2026-04-28 10:08 | 6.40500 | 2.51142 | 18011 ft | 440 kts | 249° |
| 2026-04-28 10:08 | 6.39449 | 2.48244 | 18513 ft | 442 kts | 249° |
| 2026-04-28 10:08 | 6.38392 | 2.45332 | 18976 ft | 445 kts | 249° |
| 2026-04-28 10:09 | 6.37328 | 2.42404 | 19458 ft | 446 kts | 249° |
| 2026-04-28 10:09 | 6.36254 | 2.39471 | 19923 ft | 448 kts | 248° |
| 2026-04-28 10:09 | 6.35031 | 2.36584 | 20371 ft | 450 kts | 244° |
| 2026-04-28 10:09 | 6.33693 | 2.33733 | 20803 ft | 452 kts | 243° |
| 2026-04-28 10:10 | 6.32315 | 2.30883 | 21235 ft | 455 kts | 243° |
| 2026-04-28 10:10 | 6.30924 | 2.28018 | 21697 ft | 457 kts | 243° |
| 2026-04-28 10:10 | 6.29534 | 2.25138 | 22077 ft | 460 kts | 244° |
| 2026-04-28 10:10 | 6.28143 | 2.22233 | 22484 ft | 462 kts | 244° |
| 2026-04-28 10:11 | 6.26752 | 2.19307 | 22894 ft | 465 kts | 244° |
| 2026-04-28 10:11 | 6.25358 | 2.16365 | 23276 ft | 468 kts | 244° |
| 2026-04-28 10:11 | 6.23960 | 2.13406 | 23676 ft | 469 kts | 244° |
| 2026-04-28 10:11 | 6.22557 | 2.10435 | 23952 ft | 472 kts | 244° |
| 2026-04-28 10:12 | 6.21146 | 2.07448 | 24259 ft | 474 kts | 244° |
| 2026-04-28 10:12 | 6.19730 | 2.04453 | 24625 ft | 475 kts | 244° |
| 2026-04-28 10:12 | 6.18306 | 2.01439 | 24870 ft | 479 kts | 244° |
| 2026-04-28 10:12 | 6.16874 | 1.98411 | 25193 ft | 480 kts | 244° |
| 2026-04-28 10:13 | 6.15437 | 1.95374 | 25538 ft | 482 kts | 244° |
| 2026-04-28 10:13 | 6.13994 | 1.92326 | 25795 ft | 485 kts | 244° |
| 2026-04-28 10:13 | 6.12543 | 1.89260 | 26091 ft | 487 kts | 244° |
| 2026-04-28 10:13 | 6.11084 | 1.86179 | 26375 ft | 489 kts | 244° |
| 2026-04-28 10:14 | 6.09618 | 1.83082 | 26656 ft | 492 kts | 244° |
| 2026-04-28 10:14 | 6.08169 | 1.80021 | 26996 ft | 492 kts | 244° |
| 2026-04-28 10:14 | 6.06677 | 1.76870 | 27286 ft | 494 kts | 244° |
| 2026-04-28 10:14 | 6.05215 | 1.73785 | 27546 ft | 497 kts | 244° |
| 2026-04-28 10:15 | 6.03729 | 1.70646 | 27814 ft | 499 kts | 244° |
| 2026-04-28 10:15 | 6.02233 | 1.67489 | 28084 ft | 501 kts | 244° |
| 2026-04-28 10:15 | 6.00733 | 1.64326 | 28351 ft | 503 kts | 244° |
| 2026-04-28 10:15 | 5.99227 | 1.61146 | 28607 ft | 505 kts | 244° |
| 2026-04-28 10:16 | 5.97715 | 1.57958 | 28853 ft | 507 kts | 244° |
| 2026-04-28 10:16 | 5.96197 | 1.54755 | 29094 ft | 509 kts | 244° |
| 2026-04-28 10:16 | 5.94676 | 1.51546 | 29339 ft | 510 kts | 244° |
| 2026-04-28 10:16 | 5.93149 | 1.48327 | 29662 ft | 510 kts | 244° |
| 2026-04-28 10:17 | 5.91627 | 1.45123 | 30048 ft | 508 kts | 244° |
| 2026-04-28 10:17 | 5.90104 | 1.41921 | 30368 ft | 507 kts | 244° |
| 2026-04-28 10:17 | 5.88588 | 1.38738 | 30725 ft | 505 kts | 244° |
| 2026-04-28 10:17 | 5.87073 | 1.35556 | 31048 ft | 504 kts | 244° |
| 2026-04-28 10:18 | 5.85563 | 1.32386 | 31366 ft | 503 kts | 244° |
| 2026-04-28 10:18 | 5.84056 | 1.29221 | 31696 ft | 502 kts | 243° |
| 2026-04-28 10:18 | 5.82549 | 1.26055 | 31887 ft | 504 kts | 243° |
| 2026-04-28 10:18 | 5.81035 | 1.22876 | 31910 ft | 505 kts | 243° |
| 2026-04-28 10:19 | 5.78013 | 1.16529 | 31949 ft | 501 kts | 244° |
| 2026-04-28 10:19 | 5.75017 | 1.10238 | 31951 ft | 499 kts | 243° |
| 2026-04-28 10:20 | 5.72022 | 1.03954 | 31961 ft | 499 kts | 243° |
| 2026-04-28 10:20 | 5.69025 | 0.97669 | 31960 ft | 500 kts | 244° |
| 2026-04-28 10:21 | 5.66012 | 0.91348 | 31968 ft | 503 kts | 244° |
| 2026-04-28 10:21 | 5.62978 | 0.84989 | 31966 ft | 506 kts | 244° |
| 2026-04-28 10:22 | 5.59937 | 0.78614 | 31959 ft | 507 kts | 244° |
| 2026-04-28 10:22 | 5.56886 | 0.72223 | 31961 ft | 507 kts | 244° |
| 2026-04-28 10:23 | 5.53837 | 0.65835 | 31962 ft | 507 kts | 244° |
| 2026-04-28 10:23 | 5.50794 | 0.59463 | 31961 ft | 506 kts | 244° |
| 2026-04-28 10:24 | 5.47759 | 0.53110 | 31959 ft | 504 kts | 244° |
| 2026-04-28 10:24 | 5.44729 | 0.46767 | 31961 ft | 504 kts | 244° |
| 2026-04-28 10:25 | 5.41707 | 0.40432 | 31966 ft | 503 kts | 244° |
| 2026-04-28 10:25 | 5.38684 | 0.34098 | 31970 ft | 503 kts | 244° |
| 2026-04-28 10:26 | 5.35673 | 0.27768 | 31961 ft | 503 kts | 244° |
| 2026-04-28 10:26 | 5.32665 | 0.21423 | 31964 ft | 503 kts | 245° |
| 2026-04-28 10:27 | 5.29660 | 0.15087 | 31965 ft | 503 kts | 245° |
| 2026-04-28 10:27 | 5.26645 | 0.08735 | 31966 ft | 504 kts | 245° |
| 2026-04-28 10:28 | 5.23644 | 0.02432 | 31966 ft | 504 kts | 244° |
| 2026-04-28 10:29 | 5.19059 | -0.07116 | 31961 ft | 504 kts | 244° |
| 2026-04-28 10:29 | 5.16017 | -0.13451 | 31964 ft | 504 kts | 244° |
| 2026-04-28 10:30 | 5.12981 | -0.19778 | 31966 ft | 503 kts | 244° |
| 2026-04-28 10:30 | 5.09970 | -0.26054 | 31968 ft | 503 kts | 244° |
| 2026-04-28 10:31 | 5.06937 | -0.32373 | 31967 ft | 502 kts | 244° |
| 2026-04-28 10:31 | 5.03908 | -0.38682 | 31964 ft | 502 kts | 244° |
| 2026-04-28 10:32 | 5.00876 | -0.44995 | 31962 ft | 502 kts | 244° |
| 2026-04-28 10:32 | 4.97843 | -0.51307 | 31966 ft | 502 kts | 244° |
| 2026-04-28 10:33 | 4.94809 | -0.57622 | 31971 ft | 503 kts | 244° |
| 2026-04-28 10:33 | 4.92281 | -0.62879 | 31971 ft | 503 kts | 244° |
| 2026-04-28 10:34 | 4.89241 | -0.69203 | 31963 ft | 504 kts | 244° |
| 2026-04-28 10:34 | 4.86198 | -0.75530 | 31962 ft | 504 kts | 244° |
| 2026-04-28 10:35 | 4.83154 | -0.81860 | 31969 ft | 504 kts | 244° |
| 2026-04-28 10:35 | 4.80110 | -0.88187 | 31968 ft | 504 kts | 244° |
| 2026-04-28 10:36 | 4.77066 | -0.94515 | 31968 ft | 504 kts | 244° |
| 2026-04-28 10:36 | 4.74025 | -1.00842 | 31965 ft | 503 kts | 244° |
| 2026-04-28 10:37 | 4.70989 | -1.07158 | 31967 ft | 503 kts | 244° |
| 2026-04-28 10:37 | 4.67948 | -1.13479 | 31964 ft | 503 kts | 244° |
| 2026-04-28 10:38 | 4.64910 | -1.19795 | 31965 ft | 503 kts | 244° |
| 2026-04-28 10:38 | 4.61870 | -1.26112 | 31962 ft | 503 kts | 244° |
| 2026-04-28 10:39 | 4.58835 | -1.32418 | 31961 ft | 503 kts | 244° |
| 2026-04-28 10:39 | 4.55795 | -1.38731 | 31967 ft | 502 kts | 244° |
| 2026-04-28 10:40 | 4.52766 | -1.45021 | 31966 ft | 501 kts | 244° |
| 2026-04-28 10:40 | 4.49743 | -1.51298 | 31961 ft | 499 kts | 244° |
| 2026-04-28 10:41 | 4.46727 | -1.57558 | 31961 ft | 498 kts | 244° |
| 2026-04-28 10:41 | 4.43716 | -1.63807 | 31963 ft | 498 kts | 244° |
| 2026-04-28 10:42 | 4.40703 | -1.70060 | 31972 ft | 498 kts | 244° |
| 2026-04-28 10:42 | 4.37689 | -1.76318 | 31971 ft | 499 kts | 244° |
| 2026-04-28 10:43 | 4.34673 | -1.82579 | 31970 ft | 500 kts | 244° |
| 2026-04-28 10:43 | 4.31668 | -1.88809 | 31968 ft | 500 kts | 244° |
| 2026-04-28 10:44 | 4.28641 | -1.95083 | 31971 ft | 500 kts | 244° |
| 2026-04-28 10:44 | 4.25609 | -2.01367 | 31970 ft | 501 kts | 244° |
| 2026-04-28 10:45 | 4.22581 | -2.07640 | 31974 ft | 501 kts | 244° |
| 2026-04-28 10:45 | 4.19548 | -2.13926 | 31970 ft | 501 kts | 244° |
| 2026-04-28 10:46 | 4.16515 | -2.20207 | 31968 ft | 501 kts | 244° |
| 2026-04-28 10:46 | 4.13480 | -2.26495 | 31976 ft | 502 kts | 244° |
| 2026-04-28 10:47 | 4.10437 | -2.32795 | 31973 ft | 503 kts | 244° |
| 2026-04-28 10:47 | 4.07382 | -2.39120 | 31972 ft | 505 kts | 244° |
| 2026-04-28 10:48 | 4.04325 | -2.45449 | 31974 ft | 505 kts | 244° |
| 2026-04-28 10:48 | 4.01261 | -2.51788 | 31975 ft | 505 kts | 244° |
| 2026-04-28 10:49 | 3.97748 | -2.57873 | 31976 ft | 505 kts | 235° |
| 2026-04-28 10:49 | 3.93724 | -2.63626 | 31976 ft | 504 kts | 235° |
| 2026-04-28 10:50 | 3.89714 | -2.69387 | 31976 ft | 504 kts | 235° |
| 2026-04-28 10:50 | 3.85736 | -2.75171 | 31974 ft | 504 kts | 236° |
| 2026-04-28 10:51 | 3.81765 | -2.80964 | 31979 ft | 505 kts | 236° |
| 2026-04-28 10:51 | 3.77796 | -2.86750 | 31981 ft | 503 kts | 236° |
| 2026-04-28 10:52 | 3.73841 | -2.92511 | 31969 ft | 500 kts | 236° |
| 2026-04-28 10:52 | 3.69906 | -2.98241 | 31969 ft | 498 kts | 236° |
| 2026-04-28 10:53 | 3.65989 | -3.03929 | 31970 ft | 496 kts | 236° |
| 2026-04-28 10:53 | 3.62067 | -3.09598 | 31973 ft | 495 kts | 235° |
| 2026-04-28 10:54 | 3.58167 | -3.15232 | 31978 ft | 496 kts | 235° |
| 2026-04-28 10:54 | 3.54235 | -3.20917 | 31978 ft | 498 kts | 235° |
| 2026-04-28 10:55 | 3.50288 | -3.26626 | 31977 ft | 499 kts | 235° |
| 2026-04-28 10:55 | 3.46335 | -3.32341 | 31974 ft | 500 kts | 235° |
| 2026-04-28 10:56 | 3.42370 | -3.38073 | 31975 ft | 501 kts | 235° |
| 2026-04-28 10:56 | 3.38404 | -3.43807 | 31975 ft | 501 kts | 235° |
| 2026-04-28 10:57 | 3.34434 | -3.49544 | 31976 ft | 502 kts | 235° |
| 2026-04-28 10:57 | 3.30450 | -3.55300 | 31978 ft | 503 kts | 235° |
| 2026-04-28 10:58 | 3.26460 | -3.61065 | 31973 ft | 504 kts | 235° |
| 2026-04-28 10:58 | 3.22469 | -3.66830 | 31968 ft | 504 kts | 235° |
| 2026-04-28 10:59 | 3.18477 | -3.72595 | 31971 ft | 504 kts | 235° |
| 2026-04-28 10:59 | 3.14489 | -3.78355 | 31974 ft | 503 kts | 235° |
| 2026-04-28 11:00 | 3.10507 | -3.84102 | 31976 ft | 502 kts | 236° |
| 2026-04-28 11:00 | 3.06533 | -3.89841 | 31975 ft | 501 kts | 236° |
| 2026-04-28 11:01 | 3.02564 | -3.95570 | 31981 ft | 500 kts | 236° |
| 2026-04-28 11:01 | 2.98614 | -4.01270 | 31962 ft | 497 kts | 236° |
| 2026-04-28 11:02 | 2.94683 | -4.06942 | 31962 ft | 495 kts | 236° |
| 2026-04-28 11:02 | 2.90768 | -4.12590 | 31965 ft | 493 kts | 236° |
| 2026-04-28 11:03 | 2.86859 | -4.18229 | 31964 ft | 493 kts | 236° |
| 2026-04-28 11:03 | 2.82950 | -4.23867 | 31965 ft | 493 kts | 236° |
| 2026-04-28 11:04 | 2.79037 | -4.29510 | 31971 ft | 494 kts | 236° |
| 2026-04-28 11:04 | 2.75109 | -4.35174 | 31967 ft | 496 kts | 236° |
| 2026-04-28 11:05 | 2.71207 | -4.40800 | 31966 ft | 496 kts | 236° |
| 2026-04-28 11:05 | 2.67268 | -4.46479 | 31967 ft | 497 kts | 235° |
| 2026-04-28 11:06 | 2.63325 | -4.52161 | 31962 ft | 497 kts | 236° |
| 2026-04-28 11:06 | 2.59386 | -4.57838 | 31964 ft | 496 kts | 236° |
| 2026-04-28 11:07 | 2.55451 | -4.63509 | 31967 ft | 496 kts | 236° |
| 2026-04-28 11:07 | 2.51518 | -4.69175 | 31967 ft | 496 kts | 236° |
| 2026-04-28 11:08 | 2.47580 | -4.74848 | 31966 ft | 496 kts | 236° |
| 2026-04-28 11:08 | 2.43645 | -4.80517 | 31965 ft | 496 kts | 235° |
| 2026-04-28 11:09 | 2.39715 | -4.86177 | 31966 ft | 496 kts | 236° |
| 2026-04-28 11:09 | 2.35780 | -4.91844 | 31969 ft | 496 kts | 236° |
| 2026-04-28 11:10 | 2.31849 | -4.97505 | 31968 ft | 496 kts | 235° |
| 2026-04-28 11:10 | 2.27910 | -5.03177 | 31969 ft | 496 kts | 236° |
| 2026-04-28 11:11 | 2.23968 | -5.08850 | 31971 ft | 497 kts | 236° |
| 2026-04-28 11:11 | 2.20015 | -5.14541 | 31971 ft | 498 kts | 236° |
| 2026-04-28 11:12 | 2.16056 | -5.20240 | 31969 ft | 499 kts | 236° |
| 2026-04-28 11:12 | 2.12093 | -5.25943 | 31971 ft | 500 kts | 236° |
| 2026-04-28 11:13 | 2.08129 | -5.31648 | 31969 ft | 500 kts | 236° |
| 2026-04-28 11:13 | 2.04164 | -5.37352 | 31969 ft | 499 kts | 236° |
| 2026-04-28 11:14 | 2.00201 | -5.43054 | 31965 ft | 499 kts | 236° |
| 2026-04-28 11:14 | 1.96242 | -5.48749 | 31966 ft | 499 kts | 236° |
| 2026-04-28 11:15 | 1.92312 | -5.54403 | 31968 ft | 498 kts | 236° |
| 2026-04-28 11:15 | 1.88356 | -5.60092 | 31966 ft | 499 kts | 236° |
| 2026-04-28 11:16 | 1.84387 | -5.65800 | 31973 ft | 500 kts | 236° |
| 2026-04-28 11:16 | 1.80413 | -5.71516 | 31970 ft | 502 kts | 236° |
| 2026-04-28 11:17 | 1.76428 | -5.77245 | 31968 ft | 502 kts | 235° |
| 2026-04-28 11:17 | 1.72446 | -5.82971 | 31968 ft | 501 kts | 235° |
| 2026-04-28 11:18 | 1.68468 | -5.88689 | 31969 ft | 501 kts | 235° |
| 2026-04-28 11:18 | 1.64495 | -5.94401 | 31970 ft | 500 kts | 235° |
| 2026-04-28 11:19 | 1.60526 | -6.00107 | 31973 ft | 499 kts | 235° |
| 2026-04-28 11:19 | 1.56564 | -6.05802 | 31971 ft | 499 kts | 235° |
| 2026-04-28 11:20 | 1.52602 | -6.11496 | 31970 ft | 499 kts | 235° |
| 2026-04-28 11:20 | 1.49303 | -6.16237 | 31972 ft | 500 kts | 235° |
| 2026-04-28 11:21 | 1.45333 | -6.21942 | 31974 ft | 501 kts | 235° |
| 2026-04-28 11:21 | 1.41355 | -6.27657 | 31973 ft | 502 kts | 235° |
| 2026-04-28 11:22 | 1.37368 | -6.33386 | 31970 ft | 502 kts | 235° |
| 2026-04-28 11:22 | 1.33376 | -6.39122 | 31969 ft | 503 kts | 235° |
| 2026-04-28 11:23 | 1.29385 | -6.44855 | 31974 ft | 503 kts | 235° |
| 2026-04-28 11:23 | 1.25393 | -6.50590 | 31972 ft | 502 kts | 235° |
| 2026-04-28 11:24 | 1.21406 | -6.56317 | 31973 ft | 502 kts | 235° |
| 2026-04-28 11:24 | 1.17421 | -6.62042 | 31973 ft | 501 kts | 235° |
| 2026-04-28 11:25 | 1.13436 | -6.67765 | 31965 ft | 501 kts | 235° |
| 2026-04-28 11:25 | 1.09454 | -6.73484 | 31969 ft | 501 kts | 235° |
| 2026-04-28 11:26 | 1.05469 | -6.79207 | 31972 ft | 502 kts | 235° |
| 2026-04-28 11:26 | 1.01477 | -6.84940 | 31972 ft | 503 kts | 235° |
| 2026-04-28 11:27 | 0.97506 | -6.90642 | 31974 ft | 503 kts | 235° |
| 2026-04-28 11:27 | 0.93509 | -6.96382 | 31972 ft | 504 kts | 235° |
| 2026-04-28 11:28 | 0.89504 | -7.02133 | 31971 ft | 504 kts | 235° |
| 2026-04-28 11:28 | 0.85506 | -7.07875 | 31972 ft | 504 kts | 235° |
| 2026-04-28 11:29 | 0.81502 | -7.13624 | 31971 ft | 504 kts | 235° |
| 2026-04-28 11:29 | 0.77502 | -7.19367 | 31969 ft | 503 kts | 235° |
| 2026-04-28 11:30 | 0.73504 | -7.25107 | 31973 ft | 503 kts | 236° |
| 2026-04-28 11:30 | 0.67514 | -7.33708 | 31972 ft | 503 kts | 236° |
| 2026-04-28 11:31 | 0.63525 | -7.39448 | 31974 ft | 502 kts | 236° |
| 2026-04-28 11:31 | 0.59549 | -7.45178 | 31965 ft | 502 kts | 236° |
| 2026-04-28 11:32 | 0.55565 | -7.50920 | 31971 ft | 502 kts | 236° |
| 2026-04-28 11:32 | 0.51586 | -7.56653 | 31970 ft | 502 kts | 236° |
| 2026-04-28 11:33 | 0.47607 | -7.62385 | 31964 ft | 502 kts | 235° |
| 2026-04-28 11:33 | 0.43620 | -7.68129 | 31971 ft | 503 kts | 235° |
| 2026-04-28 11:34 | 0.39634 | -7.73872 | 31975 ft | 504 kts | 236° |
| 2026-04-28 11:34 | 0.35886 | -7.79735 | 31968 ft | 504 kts | 238° |
| 2026-04-28 11:35 | 0.32231 | -7.85713 | 31973 ft | 504 kts | 239° |
| 2026-04-28 11:35 | 0.28572 | -7.91694 | 31970 ft | 505 kts | 239° |
| 2026-04-28 11:36 | 0.24890 | -7.97677 | 31971 ft | 505 kts | 238° |
| 2026-04-28 11:36 | 0.21197 | -8.03656 | 31969 ft | 505 kts | 238° |
| 2026-04-28 11:37 | 0.17509 | -8.09626 | 31970 ft | 505 kts | 238° |
| 2026-04-28 11:37 | 0.13818 | -8.15602 | 31969 ft | 505 kts | 238° |
| 2026-04-28 11:38 | 0.10135 | -8.21569 | 31968 ft | 504 kts | 238° |
| 2026-04-28 11:38 | 0.06451 | -8.27536 | 31970 ft | 504 kts | 238° |
| 2026-04-28 11:39 | 0.02772 | -8.33494 | 31970 ft | 504 kts | 238° |
| 2026-04-28 11:39 | -0.00912 | -8.39462 | 31970 ft | 505 kts | 238° |
| 2026-04-28 11:40 | -0.04602 | -8.45439 | 31972 ft | 506 kts | 238° |
| 2026-04-28 11:40 | -0.08303 | -8.51432 | 31971 ft | 507 kts | 238° |
| 2026-04-28 11:41 | -0.12009 | -8.57434 | 31971 ft | 508 kts | 238° |
| 2026-04-28 11:41 | -0.15719 | -8.63445 | 31970 ft | 508 kts | 238° |
| 2026-04-28 11:42 | -0.19433 | -8.69460 | 31967 ft | 508 kts | 238° |
| 2026-04-28 11:42 | -0.23143 | -8.75469 | 31964 ft | 509 kts | 238° |
| 2026-04-28 11:43 | -0.26860 | -8.81489 | 31971 ft | 509 kts | 238° |
| 2026-04-28 11:43 | -0.30573 | -8.87504 | 31967 ft | 509 kts | 238° |
| 2026-04-28 11:44 | -0.34290 | -8.93525 | 31967 ft | 509 kts | 238° |
| 2026-04-28 11:44 | -0.38005 | -8.99543 | 31969 ft | 509 kts | 238° |
| 2026-04-28 11:45 | -0.41722 | -9.05564 | 31966 ft | 509 kts | 238° |
| 2026-04-28 11:45 | -0.45412 | -9.11539 | 31980 ft | 508 kts | 239° |
| 2026-04-28 11:46 | -0.49110 | -9.17531 | 31963 ft | 505 kts | 239° |
| 2026-04-28 11:46 | -0.52788 | -9.23491 | 31963 ft | 503 kts | 239° |
| 2026-04-28 11:47 | -0.56450 | -9.29422 | 31964 ft | 501 kts | 239° |
| 2026-04-28 11:47 | -0.60100 | -9.35336 | 31969 ft | 500 kts | 239° |
| 2026-04-28 11:48 | -0.63753 | -9.41254 | 31967 ft | 500 kts | 239° |
| 2026-04-28 11:48 | -0.67406 | -9.47173 | 31971 ft | 501 kts | 239° |
| 2026-04-28 11:49 | -0.71058 | -9.53091 | 31964 ft | 501 kts | 239° |
| 2026-04-28 11:49 | -0.74717 | -9.59020 | 31964 ft | 501 kts | 239° |
| 2026-04-28 11:50 | -0.78381 | -9.64956 | 31958 ft | 502 kts | 239° |
| 2026-04-28 11:50 | -0.82053 | -9.70907 | 31969 ft | 504 kts | 239° |
| 2026-04-28 11:51 | -0.85736 | -9.76876 | 31969 ft | 505 kts | 239° |
| 2026-04-28 11:51 | -0.89427 | -9.82858 | 31967 ft | 506 kts | 239° |
| 2026-04-28 11:52 | -0.93120 | -9.88844 | 31966 ft | 506 kts | 238° |
| 2026-04-28 11:52 | -0.96810 | -9.94827 | 31963 ft | 505 kts | 238° |
| 2026-04-28 11:53 | -1.00499 | -10.00737 | 31960 ft | 504 kts | 236° |
| 2026-04-28 11:53 | -1.04650 | -10.06371 | 31959 ft | 503 kts | 232° |
| 2026-04-28 11:54 | -1.08924 | -10.11901 | 31968 ft | 503 kts | 232° |
| 2026-04-28 11:54 | -1.13176 | -10.17446 | 31968 ft | 502 kts | 232° |
| 2026-04-28 11:55 | -1.17393 | -10.23009 | 31969 ft | 502 kts | 233° |
| 2026-04-28 11:55 | -1.21592 | -10.28576 | 31956 ft | 501 kts | 233° |
| 2026-04-28 11:56 | -1.25784 | -10.34134 | 31959 ft | 500 kts | 233° |
| 2026-04-28 11:56 | -1.29967 | -10.39679 | 31962 ft | 499 kts | 233° |
| 2026-04-28 11:57 | -1.34147 | -10.45215 | 31970 ft | 499 kts | 233° |
| 2026-04-28 11:57 | -1.38329 | -10.50755 | 31965 ft | 500 kts | 233° |
| 2026-04-28 11:58 | -1.42523 | -10.56311 | 31961 ft | 500 kts | 233° |
| 2026-04-28 11:58 | -1.46698 | -10.61842 | 31961 ft | 500 kts | 233° |
| 2026-04-28 11:59 | -1.50880 | -10.67384 | 31959 ft | 499 kts | 233° |
| 2026-04-28 11:59 | -1.55069 | -10.72934 | 31964 ft | 500 kts | 233° |
| 2026-04-28 12:00 | -1.59262 | -10.78491 | 31970 ft | 501 kts | 233° |
| 2026-04-28 12:00 | -1.63466 | -10.84063 | 31966 ft | 502 kts | 233° |
| 2026-04-28 12:01 | -1.67675 | -10.89642 | 31962 ft | 503 kts | 233° |
| 2026-04-28 12:01 | -1.71885 | -10.95222 | 31956 ft | 503 kts | 233° |
| 2026-04-28 12:02 | -1.76091 | -11.00798 | 31963 ft | 502 kts | 233° |
| 2026-04-28 12:02 | -1.80295 | -11.06371 | 31964 ft | 502 kts | 233° |
| 2026-04-28 12:03 | -1.84493 | -11.11938 | 31964 ft | 502 kts | 233° |
| 2026-04-28 12:03 | -1.88699 | -11.17514 | 31962 ft | 502 kts | 233° |
| 2026-04-28 12:04 | -1.92889 | -11.23070 | 31964 ft | 504 kts | 233° |
| 2026-04-28 12:04 | -1.97123 | -11.28685 | 31961 ft | 505 kts | 233° |
| 2026-04-28 12:05 | -2.01334 | -11.34272 | 31964 ft | 505 kts | 233° |
| 2026-04-28 12:05 | -2.05575 | -11.39897 | 31964 ft | 504 kts | 233° |
| 2026-04-28 12:06 | -2.09786 | -11.45483 | 31959 ft | 503 kts | 233° |
| 2026-04-28 12:06 | -2.13981 | -11.51048 | 31959 ft | 502 kts | 233° |
| 2026-04-28 12:07 | -2.18191 | -11.56634 | 31958 ft | 502 kts | 233° |
| 2026-04-28 12:07 | -2.22399 | -11.62218 | 31962 ft | 502 kts | 233° |
| 2026-04-28 12:08 | -2.26598 | -11.67791 | 31962 ft | 503 kts | 233° |
| 2026-04-28 12:08 | -2.30791 | -11.73357 | 31960 ft | 503 kts | 233° |
| 2026-04-28 12:09 | -2.34319 | -11.78041 | 31961 ft | 503 kts | 233° |
| 2026-04-28 12:09 | -2.38525 | -11.83624 | 31960 ft | 503 kts | 233° |
| 2026-04-28 12:10 | -2.42723 | -11.89198 | 31964 ft | 503 kts | 233° |
| 2026-04-28 12:10 | -2.46909 | -11.94757 | 31967 ft | 502 kts | 233° |
| 2026-04-28 12:11 | -2.51118 | -12.00346 | 31964 ft | 503 kts | 233° |
| 2026-04-28 12:11 | -2.55335 | -12.05947 | 31960 ft | 503 kts | 233° |
| 2026-04-28 12:12 | -2.59522 | -12.11510 | 31959 ft | 503 kts | 233° |
| 2026-04-28 12:12 | -2.63744 | -12.17117 | 31958 ft | 504 kts | 234° |
| 2026-04-28 12:13 | -2.67944 | -12.22699 | 31963 ft | 504 kts | 233° |
| 2026-04-28 12:13 | -2.72144 | -12.28281 | 31966 ft | 504 kts | 233° |
| 2026-04-28 12:14 | -2.76377 | -12.33907 | 31964 ft | 504 kts | 233° |
| 2026-04-28 12:14 | -2.80584 | -12.39499 | 31958 ft | 504 kts | 233° |
| 2026-04-28 12:15 | -2.84800 | -12.45103 | 31956 ft | 503 kts | 233° |
| 2026-04-28 12:15 | -2.89004 | -12.50693 | 31960 ft | 502 kts | 233° |
| 2026-04-28 12:16 | -2.93180 | -12.56247 | 31964 ft | 502 kts | 233° |
| 2026-04-28 12:16 | -2.97382 | -12.61835 | 31964 ft | 502 kts | 233° |
| 2026-04-28 12:17 | -3.01595 | -12.67439 | 31955 ft | 502 kts | 233° |
| 2026-04-28 12:17 | -3.05763 | -12.72984 | 31952 ft | 502 kts | 233° |
| 2026-04-28 12:18 | -3.09975 | -12.78588 | 31957 ft | 502 kts | 233° |
| 2026-04-28 12:18 | -3.14169 | -12.84170 | 31967 ft | 503 kts | 234° |
| 2026-04-28 12:19 | -3.18376 | -12.89770 | 31969 ft | 504 kts | 234° |
| 2026-04-28 12:19 | -3.22565 | -12.95345 | 31962 ft | 504 kts | 233° |
| 2026-04-28 12:20 | -3.26796 | -13.00979 | 31955 ft | 504 kts | 233° |
| 2026-04-28 12:20 | -3.30995 | -13.06570 | 31953 ft | 504 kts | 233° |
| 2026-04-28 12:21 | -3.35179 | -13.12144 | 31964 ft | 502 kts | 233° |
| 2026-04-28 12:21 | -3.39370 | -13.17728 | 31961 ft | 501 kts | 233° |
| 2026-04-28 12:22 | -3.43571 | -13.23326 | 31960 ft | 499 kts | 233° |
| 2026-04-28 12:22 | -3.47586 | -13.28948 | 31960 ft | 498 kts | 236° |
| 2026-04-28 12:23 | -3.51474 | -13.34679 | 31958 ft | 498 kts | 236° |
| 2026-04-28 12:23 | -3.55357 | -13.40394 | 31959 ft | 498 kts | 236° |
| 2026-04-28 12:24 | -3.59298 | -13.46140 | 31969 ft | 499 kts | 236° |
| 2026-04-28 12:24 | -3.63231 | -13.51850 | 31965 ft | 499 kts | 236° |
| 2026-04-28 12:25 | -3.67169 | -13.57564 | 31959 ft | 499 kts | 236° |
| 2026-04-28 12:25 | -3.71087 | -13.63254 | 31964 ft | 497 kts | 236° |
| 2026-04-28 12:26 | -3.75001 | -13.68940 | 31963 ft | 495 kts | 236° |
| 2026-04-28 12:26 | -3.78916 | -13.74630 | 31953 ft | 492 kts | 236° |
| 2026-04-28 12:27 | -3.82772 | -13.80236 | 31957 ft | 490 kts | 236° |
| 2026-04-28 12:27 | -3.86631 | -13.85845 | 31962 ft | 489 kts | 236° |
| 2026-04-28 12:28 | -3.90491 | -13.91459 | 31962 ft | 489 kts | 236° |
| 2026-04-28 12:28 | -3.94369 | -13.97098 | 31961 ft | 490 kts | 236° |
| 2026-04-28 12:29 | -4.00166 | -14.05531 | 31965 ft | 492 kts | 236° |
| 2026-04-28 12:30 | -4.04049 | -14.11181 | 31960 ft | 493 kts | 236° |
| 2026-04-28 12:30 | -4.07929 | -14.16829 | 31960 ft | 493 kts | 236° |
| 2026-04-28 12:31 | -4.11810 | -14.22478 | 31958 ft | 493 kts | 236° |
| 2026-04-28 12:31 | -4.15716 | -14.28165 | 31960 ft | 493 kts | 236° |
| 2026-04-28 12:32 | -4.19598 | -14.33816 | 31965 ft | 493 kts | 236° |
| 2026-04-28 12:32 | -4.23497 | -14.39495 | 31960 ft | 493 kts | 236° |
| 2026-04-28 12:33 | -4.27362 | -14.45126 | 31957 ft | 493 kts | 236° |
| 2026-04-28 12:33 | -4.31252 | -14.50794 | 31964 ft | 493 kts | 236° |
| 2026-04-28 12:34 | -4.35130 | -14.56446 | 31965 ft | 493 kts | 236° |
| 2026-04-28 12:34 | -4.39009 | -14.62101 | 31964 ft | 493 kts | 236° |
| 2026-04-28 12:35 | -4.42907 | -14.67784 | 31968 ft | 493 kts | 236° |
| 2026-04-28 12:35 | -4.46775 | -14.73425 | 31963 ft | 493 kts | 236° |
| 2026-04-28 12:36 | -4.50657 | -14.79087 | 31963 ft | 492 kts | 236° |
| 2026-04-28 12:36 | -4.54533 | -14.84741 | 31965 ft | 492 kts | 236° |
| 2026-04-28 12:37 | -4.58417 | -14.90410 | 31965 ft | 492 kts | 236° |
| 2026-04-28 12:37 | -4.62274 | -14.96041 | 31962 ft | 492 kts | 236° |
| 2026-04-28 12:38 | -4.66137 | -15.01680 | 31966 ft | 492 kts | 236° |
| 2026-04-28 12:38 | -4.70011 | -15.07337 | 31968 ft | 492 kts | 236° |
| 2026-04-28 12:39 | -4.73908 | -15.13028 | 31969 ft | 492 kts | 236° |
| 2026-04-28 12:39 | -4.77766 | -15.18665 | 31967 ft | 492 kts | 236° |
| 2026-04-28 12:40 | -4.81641 | -15.24328 | 31969 ft | 491 kts | 235° |
| 2026-04-28 12:40 | -4.85499 | -15.29967 | 31962 ft | 490 kts | 235° |
| 2026-04-28 12:41 | -4.89347 | -15.35593 | 31970 ft | 489 kts | 235° |
| 2026-04-28 12:41 | -4.93176 | -15.41193 | 31973 ft | 488 kts | 235° |
| 2026-04-28 12:42 | -4.97018 | -15.46812 | 31970 ft | 489 kts | 235° |
| 2026-04-28 12:42 | -5.00857 | -15.52429 | 31967 ft | 489 kts | 235° |
| 2026-04-28 12:43 | -5.04705 | -15.58060 | 31973 ft | 490 kts | 235° |
| 2026-04-28 12:43 | -5.08562 | -15.63706 | 31976 ft | 490 kts | 235° |
| 2026-04-28 12:44 | -5.12397 | -15.69320 | 31969 ft | 484 kts | 236° |
| 2026-04-28 12:44 | -5.16179 | -15.74859 | 31972 ft | 481 kts | 236° |
| 2026-04-28 12:45 | -5.19960 | -15.80397 | 31969 ft | 480 kts | 236° |
| 2026-04-28 12:45 | -5.23712 | -15.85895 | 31972 ft | 480 kts | 236° |
| 2026-04-28 12:46 | -5.27498 | -15.91444 | 31973 ft | 481 kts | 236° |
| 2026-04-28 12:46 | -5.31279 | -15.96986 | 31970 ft | 482 kts | 236° |
| 2026-04-28 12:47 | -5.35061 | -16.02532 | 31963 ft | 484 kts | 235° |
| 2026-04-28 12:47 | -5.38872 | -16.08122 | 31969 ft | 484 kts | 235° |
| 2026-04-28 12:48 | -5.42655 | -16.13671 | 31975 ft | 484 kts | 235° |
| 2026-04-28 12:48 | -5.46472 | -16.19273 | 31968 ft | 484 kts | 235° |
| 2026-04-28 12:49 | -5.50258 | -16.24830 | 31972 ft | 483 kts | 236° |
| 2026-04-28 12:49 | -5.54037 | -16.30379 | 31967 ft | 482 kts | 236° |
| 2026-04-28 12:50 | -5.57838 | -16.35960 | 31965 ft | 481 kts | 236° |
| 2026-04-28 12:50 | -5.61610 | -16.41502 | 31971 ft | 481 kts | 236° |
| 2026-04-28 12:51 | -5.65367 | -16.47023 | 31966 ft | 482 kts | 236° |
| 2026-04-28 12:51 | -5.69143 | -16.52573 | 31968 ft | 483 kts | 236° |
| 2026-04-28 12:52 | -5.72938 | -16.58153 | 31973 ft | 483 kts | 236° |
| 2026-04-28 12:52 | -5.76715 | -16.63707 | 31971 ft | 483 kts | 236° |
| 2026-04-28 12:53 | -5.80506 | -16.69286 | 31970 ft | 483 kts | 236° |
| 2026-04-28 12:53 | -5.84298 | -16.74870 | 31972 ft | 483 kts | 236° |
| 2026-04-28 12:53 | -5.85560 | -16.76741 | 32076 ft | 485 kts | 236° |
| 2026-04-28 12:54 | -5.88057 | -16.80457 | 32534 ft | 484 kts | 236° |
| 2026-04-28 12:54 | -5.89944 | -16.83271 | 32858 ft | 484 kts | 236° |
| 2026-04-28 12:54 | -5.91819 | -16.86068 | 33276 ft | 481 kts | 236° |
| 2026-04-28 12:54 | -5.93692 | -16.88859 | 33657 ft | 480 kts | 236° |
| 2026-04-28 12:55 | -5.95541 | -16.91615 | 33860 ft | 482 kts | 236° |
| 2026-04-28 12:55 | -5.99332 | -16.97263 | 33953 ft | 488 kts | 237° |
| 2026-04-28 12:56 | -6.03124 | -17.02912 | 33957 ft | 484 kts | 236° |
| 2026-04-28 12:56 | -6.06852 | -17.08468 | 33972 ft | 480 kts | 236° |
| 2026-04-28 12:57 | -6.10591 | -17.14043 | 33968 ft | 478 kts | 236° |
| 2026-04-28 12:57 | -6.14274 | -17.19537 | 33967 ft | 477 kts | 236° |
| 2026-04-28 12:58 | -6.17986 | -17.25074 | 33969 ft | 478 kts | 236° |
| 2026-04-28 12:58 | -6.21116 | -17.29699 | 33976 ft | 479 kts | 235° |
| 2026-04-28 12:59 | -6.25498 | -17.36122 | 33976 ft | 479 kts | 235° |
| 2026-04-28 12:59 | -6.28650 | -17.40749 | 33974 ft | 480 kts | 235° |
| 2026-04-28 13:00 | -6.32405 | -17.46271 | 33973 ft | 479 kts | 235° |
| 2026-04-28 13:00 | -6.36159 | -17.51795 | 33972 ft | 478 kts | 235° |
| 2026-04-28 13:01 | -6.39919 | -17.57331 | 33975 ft | 477 kts | 235° |
| 2026-04-28 13:01 | -6.43652 | -17.62830 | 33971 ft | 476 kts | 235° |
| 2026-04-28 13:02 | -6.47378 | -17.68319 | 33972 ft | 475 kts | 235° |
| 2026-04-28 13:02 | -6.51104 | -17.73810 | 33971 ft | 475 kts | 235° |
| 2026-04-28 13:03 | -6.54826 | -17.79295 | 33973 ft | 476 kts | 236° |
| 2026-04-28 13:03 | -6.58547 | -17.84782 | 33974 ft | 477 kts | 236° |
| 2026-04-28 13:04 | -6.62284 | -17.90294 | 33977 ft | 478 kts | 236° |
| 2026-04-28 13:04 | -6.66037 | -17.95832 | 33976 ft | 479 kts | 236° |
| 2026-04-28 13:05 | -6.69790 | -18.01371 | 33975 ft | 479 kts | 236° |
| 2026-04-28 13:05 | -6.73545 | -18.06915 | 33974 ft | 480 kts | 236° |
| 2026-04-28 13:06 | -6.77301 | -18.12462 | 33973 ft | 480 kts | 235° |
| 2026-04-28 13:06 | -6.81057 | -18.18011 | 33981 ft | 480 kts | 235° |
| 2026-04-28 13:07 | -6.84788 | -18.23524 | 33976 ft | 480 kts | 235° |
| 2026-04-28 13:07 | -6.88539 | -18.29070 | 33976 ft | 479 kts | 236° |
| 2026-04-28 13:08 | -6.92283 | -18.34606 | 33981 ft | 478 kts | 236° |
| 2026-04-28 13:08 | -6.96024 | -18.40140 | 33983 ft | 477 kts | 235° |
| 2026-04-28 13:09 | -6.99783 | -18.45702 | 33973 ft | 477 kts | 235° |
| 2026-04-28 13:09 | -7.03492 | -18.51193 | 33975 ft | 478 kts | 235° |
| 2026-04-28 13:10 | -7.07231 | -18.56729 | 33985 ft | 478 kts | 235° |
| 2026-04-28 13:10 | -7.10974 | -18.62274 | 33986 ft | 479 kts | 236° |
| 2026-04-28 13:11 | -7.14721 | -18.67825 | 33979 ft | 480 kts | 235° |
| 2026-04-28 13:11 | -7.18471 | -18.73384 | 33978 ft | 480 kts | 235° |
| 2026-04-28 13:12 | -7.22217 | -18.78939 | 33983 ft | 479 kts | 236° |
| 2026-04-28 13:12 | -7.25961 | -18.84492 | 33984 ft | 478 kts | 236° |
| 2026-04-28 13:13 | -7.29689 | -18.90024 | 33976 ft | 477 kts | 236° |
| 2026-04-28 13:13 | -7.33414 | -18.95553 | 33978 ft | 476 kts | 236° |
| 2026-04-28 13:14 | -7.37132 | -19.01074 | 33984 ft | 477 kts | 236° |
| 2026-04-28 13:14 | -7.40860 | -19.06611 | 33984 ft | 477 kts | 236° |
| 2026-04-28 13:15 | -7.44594 | -19.12159 | 33980 ft | 479 kts | 235° |
| 2026-04-28 13:15 | -7.48331 | -19.17715 | 33976 ft | 479 kts | 236° |
| 2026-04-28 13:16 | -7.52073 | -19.23278 | 33982 ft | 480 kts | 236° |
| 2026-04-28 13:16 | -7.55789 | -19.28807 | 33984 ft | 479 kts | 236° |
| 2026-04-28 13:17 | -7.59522 | -19.34361 | 33980 ft | 478 kts | 236° |
| 2026-04-28 13:17 | -7.63250 | -19.39911 | 33977 ft | 478 kts | 236° |
| 2026-04-28 13:18 | -7.66976 | -19.45460 | 33982 ft | 478 kts | 236° |
| 2026-04-28 13:18 | -7.70703 | -19.51014 | 33981 ft | 478 kts | 236° |
| 2026-04-28 13:19 | -7.74438 | -19.56571 | 33999 ft | 479 kts | 236° |
| 2026-04-28 13:19 | -7.78182 | -19.62129 | 33987 ft | 479 kts | 236° |
| 2026-04-28 13:20 | -7.81926 | -19.67691 | 33978 ft | 480 kts | 236° |
| 2026-04-28 13:20 | -7.85672 | -19.73259 | 33984 ft | 479 kts | 236° |
| 2026-04-28 13:21 | -7.89412 | -19.78822 | 33990 ft | 479 kts | 236° |
| 2026-04-28 13:21 | -7.93146 | -19.84379 | 33980 ft | 478 kts | 236° |
| 2026-04-28 13:22 | -7.96874 | -19.89929 | 33982 ft | 478 kts | 236° |
| 2026-04-28 13:22 | -8.00600 | -19.95479 | 33980 ft | 478 kts | 236° |
| 2026-04-28 13:23 | -8.04334 | -20.01041 | 33990 ft | 479 kts | 236° |
| 2026-04-28 13:23 | -8.08067 | -20.06605 | 33984 ft | 479 kts | 236° |
| 2026-04-28 13:24 | -8.11801 | -20.12171 | 33986 ft | 479 kts | 236° |
| 2026-04-28 13:24 | -8.15514 | -20.17709 | 33984 ft | 480 kts | 236° |
| 2026-04-28 13:25 | -8.19281 | -20.23330 | 34012 ft | 480 kts | 236° |
| 2026-04-28 13:25 | -8.22992 | -20.28870 | 33994 ft | 479 kts | 236° |
| 2026-04-28 13:26 | -8.26714 | -20.34427 | 33979 ft | 477 kts | 236° |
| 2026-04-28 13:26 | -8.30446 | -20.40002 | 33991 ft | 475 kts | 236° |
| 2026-04-28 13:27 | -8.34122 | -20.45496 | 33993 ft | 476 kts | 236° |
| 2026-04-28 13:27 | -8.37837 | -20.51050 | 33993 ft | 479 kts | 236° |
| 2026-04-28 13:28 | -8.41580 | -20.56648 | 33982 ft | 483 kts | 236° |
| 2026-04-28 13:28 | -8.45333 | -20.62264 | 33984 ft | 480 kts | 236° |
| 2026-04-28 13:29 | -8.49059 | -20.67841 | 34010 ft | 478 kts | 236° |
| 2026-04-28 13:29 | -8.52797 | -20.73438 | 34011 ft | 477 kts | 236° |
| 2026-04-28 13:30 | -8.56473 | -20.78945 | 33982 ft | 476 kts | 236° |
| 2026-04-28 13:30 | -8.60176 | -20.84496 | 33984 ft | 476 kts | 236° |
| 2026-04-28 13:31 | -8.65735 | -20.92832 | 33987 ft | 478 kts | 236° |
| 2026-04-28 13:31 | -8.69457 | -20.98415 | 33990 ft | 479 kts | 236° |
| 2026-04-28 13:32 | -8.73183 | -21.04007 | 33989 ft | 480 kts | 236° |
| 2026-04-28 13:32 | -8.76905 | -21.09596 | 33981 ft | 479 kts | 236° |
| 2026-04-28 13:33 | -8.80618 | -21.15173 | 33983 ft | 477 kts | 236° |
| 2026-04-28 13:33 | -8.84323 | -21.20740 | 33989 ft | 477 kts | 236° |
| 2026-04-28 13:34 | -8.88030 | -21.26313 | 33988 ft | 477 kts | 236° |
| 2026-04-28 13:34 | -8.91731 | -21.31880 | 33987 ft | 477 kts | 236° |
| 2026-04-28 13:35 | -8.95435 | -21.37453 | 33981 ft | 478 kts | 236° |
| 2026-04-28 13:35 | -8.99145 | -21.43039 | 33989 ft | 478 kts | 236° |
| 2026-04-28 13:36 | -9.02861 | -21.48635 | 33988 ft | 480 kts | 236° |
| 2026-04-28 13:36 | -9.06590 | -21.54254 | 33988 ft | 482 kts | 236° |
| 2026-04-28 13:37 | -9.10323 | -21.59882 | 33986 ft | 482 kts | 236° |
| 2026-04-28 13:37 | -9.14051 | -21.65505 | 33993 ft | 480 kts | 236° |
| 2026-04-28 13:38 | -9.17764 | -21.71108 | 34009 ft | 478 kts | 236° |
| 2026-04-28 13:38 | -9.21461 | -21.76702 | 33988 ft | 478 kts | 236° |
| 2026-04-28 13:39 | -9.25149 | -21.82292 | 33982 ft | 478 kts | 236° |
| 2026-04-28 13:39 | -9.28846 | -21.87895 | 33988 ft | 479 kts | 236° |
| 2026-04-28 13:40 | -9.32553 | -21.93518 | 34005 ft | 481 kts | 236° |
| 2026-04-28 13:40 | -9.36271 | -21.99157 | 33989 ft | 482 kts | 236° |
| 2026-04-28 13:41 | -9.39968 | -22.04769 | 33982 ft | 482 kts | 236° |
| 2026-04-28 13:41 | -9.43687 | -22.10416 | 33988 ft | 482 kts | 236° |
| 2026-04-28 13:42 | -9.47398 | -22.16053 | 34004 ft | 481 kts | 236° |
| 2026-04-28 13:42 | -9.51106 | -22.21688 | 33985 ft | 480 kts | 236° |
| 2026-04-28 13:43 | -9.54806 | -22.27314 | 33988 ft | 480 kts | 236° |
| 2026-04-28 13:43 | -9.58503 | -22.32938 | 34007 ft | 479 kts | 236° |
| 2026-04-28 13:44 | -9.62199 | -22.38562 | 34009 ft | 480 kts | 236° |
| 2026-04-28 13:44 | -9.65901 | -22.44198 | 33989 ft | 481 kts | 236° |
| 2026-04-28 13:45 | -9.69609 | -22.49848 | 34009 ft | 482 kts | 236° |
| 2026-04-28 13:45 | -9.72698 | -22.54555 | 34010 ft | 483 kts | 236° |
| 2026-04-28 13:46 | -9.76420 | -22.60229 | 33989 ft | 484 kts | 236° |
| 2026-04-28 13:46 | -9.80145 | -22.65911 | 33995 ft | 484 kts | 236° |
| 2026-04-28 13:47 | -9.83863 | -22.71585 | 34009 ft | 483 kts | 236° |
| 2026-04-28 13:47 | -9.87578 | -22.77258 | 34013 ft | 482 kts | 236° |
| 2026-04-28 13:48 | -9.91290 | -22.82928 | 34012 ft | 483 kts | 236° |
| 2026-04-28 13:48 | -9.95008 | -22.88609 | 33995 ft | 484 kts | 236° |
| 2026-04-28 13:49 | -9.98730 | -22.94301 | 34013 ft | 484 kts | 236° |
| 2026-04-28 13:49 | -10.02455 | -23.00000 | 34010 ft | 485 kts | 236° |
| 2026-04-28 13:50 | -10.06182 | -23.05704 | 33990 ft | 485 kts | 236° |
| 2026-04-28 13:50 | -10.09909 | -23.11411 | 33992 ft | 485 kts | 236° |
| 2026-04-28 13:51 | -10.13636 | -23.17120 | 34012 ft | 485 kts | 236° |
| 2026-04-28 13:51 | -10.17368 | -23.22841 | 34013 ft | 486 kts | 236° |
| 2026-04-28 13:52 | -10.21101 | -23.28566 | 34007 ft | 487 kts | 236° |
| 2026-04-28 13:52 | -10.24837 | -23.34297 | 34008 ft | 487 kts | 236° |
| 2026-04-28 13:53 | -10.28576 | -23.40038 | 34009 ft | 487 kts | 236° |
| 2026-04-28 13:53 | -10.32283 | -23.45732 | 34011 ft | 487 kts | 236° |
| 2026-04-28 13:54 | -10.36014 | -23.51465 | 34010 ft | 487 kts | 236° |
| 2026-04-28 13:54 | -10.39746 | -23.57203 | 34012 ft | 487 kts | 236° |
| 2026-04-28 13:55 | -10.43477 | -23.62942 | 34016 ft | 487 kts | 236° |
| 2026-04-28 13:55 | -10.47210 | -23.68686 | 34009 ft | 487 kts | 236° |
| 2026-04-28 13:56 | -10.50940 | -23.74430 | 34009 ft | 487 kts | 236° |
| 2026-04-28 13:56 | -10.54670 | -23.80176 | 33995 ft | 487 kts | 236° |
| 2026-04-28 13:57 | -10.58401 | -23.85927 | 34012 ft | 488 kts | 235° |
| 2026-04-28 13:57 | -10.62135 | -23.91686 | 34010 ft | 488 kts | 236° |
| 2026-04-28 13:58 | -10.65873 | -23.97454 | 34009 ft | 489 kts | 236° |
| 2026-04-28 13:58 | -10.69612 | -24.03226 | 33994 ft | 489 kts | 236° |
| 2026-04-28 13:59 | -10.73348 | -24.08998 | 34009 ft | 489 kts | 236° |
| 2026-04-28 13:59 | -10.77087 | -24.14776 | 34017 ft | 489 kts | 236° |
| 2026-04-28 14:00 | -10.80801 | -24.20519 | 34017 ft | 489 kts | 236° |
| 2026-04-28 14:00 | -10.84540 | -24.26303 | 34015 ft | 489 kts | 236° |
| 2026-04-28 14:01 | -10.88279 | -24.32091 | 34016 ft | 490 kts | 235° |
| 2026-04-28 14:01 | -10.92017 | -24.37881 | 34016 ft | 490 kts | 236° |
| 2026-04-28 14:02 | -10.95755 | -24.43674 | 34012 ft | 490 kts | 236° |
| 2026-04-28 14:02 | -10.99493 | -24.49470 | 34017 ft | 490 kts | 236° |
| 2026-04-28 14:03 | -11.03232 | -24.55270 | 34015 ft | 490 kts | 236° |
| 2026-04-28 14:03 | -11.06971 | -24.61074 | 34014 ft | 490 kts | 236° |
| 2026-04-28 14:04 | -11.10711 | -24.66882 | 34017 ft | 491 kts | 235° |
| 2026-04-28 14:04 | -11.14452 | -24.72695 | 34015 ft | 491 kts | 236° |
| 2026-04-28 14:05 | -11.18191 | -24.78508 | 34017 ft | 491 kts | 235° |
| 2026-04-28 14:05 | -11.21931 | -24.84327 | 34018 ft | 491 kts | 236° |
| 2026-04-28 14:06 | -11.25672 | -24.90150 | 34018 ft | 491 kts | 236° |
| 2026-04-28 14:06 | -11.29415 | -24.95980 | 34016 ft | 491 kts | 236° |
| 2026-04-28 14:07 | -11.33156 | -25.01809 | 34019 ft | 492 kts | 236° |
| 2026-04-28 14:07 | -11.36872 | -25.07604 | 34021 ft | 492 kts | 236° |
| 2026-04-28 14:08 | -11.40614 | -25.13441 | 34021 ft | 492 kts | 235° |
| 2026-04-28 14:08 | -11.44382 | -25.19321 | 34024 ft | 492 kts | 235° |
| 2026-04-28 14:09 | -11.48098 | -25.25127 | 34023 ft | 492 kts | 236° |
| 2026-04-28 14:09 | -11.51839 | -25.30973 | 34019 ft | 492 kts | 235° |
| 2026-04-28 14:10 | -11.55580 | -25.36823 | 34018 ft | 492 kts | 235° |
| 2026-04-28 14:10 | -11.59318 | -25.42670 | 34020 ft | 492 kts | 235° |
| 2026-04-28 14:11 | -11.63054 | -25.48518 | 34022 ft | 492 kts | 236° |
| 2026-04-28 14:11 | -11.66790 | -25.54371 | 34021 ft | 492 kts | 236° |
| 2026-04-28 14:12 | -11.70525 | -25.60225 | 34023 ft | 492 kts | 235° |
| 2026-04-28 14:12 | -11.74262 | -25.66085 | 34022 ft | 492 kts | 236° |
| 2026-04-28 14:13 | -11.77995 | -25.71943 | 34023 ft | 493 kts | 236° |
| 2026-04-28 14:13 | -11.81731 | -25.77808 | 34022 ft | 493 kts | 235° |
| 2026-04-28 14:14 | -11.85466 | -25.83677 | 34024 ft | 493 kts | 235° |
| 2026-04-28 14:14 | -11.89202 | -25.89549 | 34026 ft | 493 kts | 235° |
| 2026-04-28 14:15 | -11.92940 | -25.95429 | 34024 ft | 494 kts | 236° |
| 2026-04-28 14:15 | -11.96681 | -26.01317 | 34027 ft | 494 kts | 234° |
| 2026-04-28 14:16 | -12.00419 | -26.07204 | 34029 ft | 494 kts | 235° |
| 2026-04-28 14:16 | -12.04162 | -26.13101 | 34026 ft | 495 kts | 236° |
| 2026-04-28 14:17 | -12.07901 | -26.18997 | 34030 ft | 494 kts | 236° |
| 2026-04-28 14:17 | -12.11637 | -26.24892 | 34030 ft | 494 kts | 236° |
| 2026-04-28 14:18 | -12.15374 | -26.30792 | 34018 ft | 494 kts | 236° |
| 2026-04-28 14:18 | -12.19108 | -26.36690 | 34032 ft | 494 kts | 236° |
| 2026-04-28 14:19 | -12.22842 | -26.42592 | 34034 ft | 494 kts | 236° |
| 2026-04-28 14:19 | -12.26574 | -26.48493 | 34030 ft | 494 kts | 236° |
| 2026-04-28 14:20 | -12.30277 | -26.54355 | 34030 ft | 494 kts | 235° |
| 2026-04-28 14:20 | -12.34031 | -26.60300 | 34029 ft | 494 kts | 236° |
| 2026-04-28 14:21 | -12.37755 | -26.66203 | 34037 ft | 494 kts | 235° |
| 2026-04-28 14:21 | -12.41482 | -26.72113 | 34031 ft | 494 kts | 235° |
| 2026-04-28 14:22 | -12.45209 | -26.78024 | 34034 ft | 495 kts | 237° |
| 2026-04-28 14:22 | -12.48912 | -26.83902 | 34038 ft | 495 kts | 235° |
| 2026-04-28 14:23 | -12.52638 | -26.89821 | 34035 ft | 495 kts | 236° |
| 2026-04-28 14:23 | -12.56367 | -26.95748 | 34039 ft | 495 kts | 236° |
| 2026-04-28 14:24 | -12.60092 | -27.01675 | 34034 ft | 495 kts | 236° |
| 2026-04-28 14:24 | -12.63819 | -27.07608 | 34038 ft | 495 kts | 236° |
| 2026-04-28 14:25 | -12.67547 | -27.13546 | 34043 ft | 495 kts | 236° |
| 2026-04-28 14:25 | -12.71269 | -27.19480 | 34044 ft | 495 kts | 236° |
| 2026-04-28 14:26 | -12.74986 | -27.25408 | 34040 ft | 494 kts | 236° |
| 2026-04-28 14:26 | -12.78700 | -27.31336 | 34041 ft | 494 kts | 236° |
| 2026-04-28 14:27 | -12.82406 | -27.37255 | 34046 ft | 493 kts | 236° |
| 2026-04-28 14:27 | -12.86111 | -27.43176 | 34042 ft | 493 kts | 236° |
| 2026-04-28 14:28 | -12.89813 | -27.49095 | 34039 ft | 493 kts | 234° |
| 2026-04-28 14:28 | -12.93514 | -27.55019 | 34041 ft | 493 kts | 235° |
| 2026-04-28 14:29 | -12.97215 | -27.60945 | 34048 ft | 493 kts | 237° |
| 2026-04-28 14:29 | -13.00912 | -27.66867 | 34046 ft | 493 kts | 236° |
| 2026-04-28 14:30 | -13.04603 | -27.72786 | 34049 ft | 492 kts | 235° |
| 2026-04-28 14:30 | -13.08284 | -27.78693 | 34046 ft | 491 kts | 235° |
| 2026-04-28 14:31 | -13.11960 | -27.84596 | 34053 ft | 491 kts | 237° |
| 2026-04-28 14:31 | -13.15634 | -27.90495 | 34047 ft | 491 kts | 236° |
| 2026-04-28 14:32 | -13.19280 | -27.96357 | 34050 ft | 491 kts | 235° |
| 2026-04-28 14:32 | -13.22949 | -28.02262 | 34049 ft | 491 kts | 235° |
| 2026-04-28 14:33 | -13.26616 | -28.08167 | 34059 ft | 490 kts | 236° |
| 2026-04-28 14:33 | -13.30281 | -28.14068 | 34049 ft | 490 kts | 236° |
| 2026-04-28 14:34 | -13.35177 | -28.21961 | 34051 ft | 490 kts | 236° |
| 2026-04-28 14:35 | -13.38834 | -28.27861 | 34058 ft | 489 kts | 236° |
| 2026-04-28 14:35 | -13.42486 | -28.33756 | 34051 ft | 489 kts | 235° |
| 2026-04-28 14:36 | -13.46137 | -28.39656 | 34049 ft | 489 kts | 236° |
| 2026-04-28 14:36 | -13.49786 | -28.45555 | 34053 ft | 489 kts | 236° |
| 2026-04-28 14:37 | -13.53434 | -28.51455 | 34052 ft | 489 kts | 236° |
| 2026-04-28 14:37 | -13.57081 | -28.57360 | 34061 ft | 489 kts | 235° |
| 2026-04-28 14:38 | -13.60730 | -28.63272 | 34058 ft | 490 kts | 235° |
| 2026-04-28 14:38 | -13.64378 | -28.69185 | 34055 ft | 490 kts | 235° |
| 2026-04-28 14:39 | -13.68001 | -28.75064 | 34064 ft | 490 kts | 236° |
| 2026-04-28 14:39 | -13.71651 | -28.80989 | 34063 ft | 490 kts | 236° |
| 2026-04-28 14:40 | -13.75300 | -28.86917 | 34064 ft | 491 kts | 237° |
| 2026-04-28 14:40 | -13.78949 | -28.92851 | 34064 ft | 491 kts | 236° |
| 2026-04-28 14:41 | -13.82599 | -28.98789 | 34061 ft | 491 kts | 235° |
| 2026-04-28 14:41 | -13.86249 | -29.04730 | 34066 ft | 491 kts | 236° |
| 2026-04-28 14:42 | -13.89898 | -29.10675 | 34063 ft | 492 kts | 236° |
| 2026-04-28 14:42 | -13.93551 | -29.16629 | 34063 ft | 492 kts | 236° |
| 2026-04-28 14:43 | -13.97199 | -29.22580 | 34067 ft | 492 kts | 236° |
| 2026-04-28 14:43 | -14.00845 | -29.28533 | 34067 ft | 492 kts | 235° |
| 2026-04-28 14:44 | -14.04490 | -29.34490 | 34068 ft | 492 kts | 235° |
| 2026-04-28 14:44 | -14.08135 | -29.40450 | 34069 ft | 492 kts | 236° |
| 2026-04-28 14:45 | -14.11783 | -29.46417 | 34069 ft | 492 kts | 236° |
| 2026-04-28 14:45 | -14.15429 | -29.52387 | 34070 ft | 492 kts | 236° |
| 2026-04-28 14:46 | -14.19075 | -29.58360 | 34069 ft | 492 kts | 236° |
| 2026-04-28 14:46 | -14.22719 | -29.64335 | 34070 ft | 493 kts | 235° |
| 2026-04-28 14:47 | -14.26364 | -29.70317 | 34067 ft | 493 kts | 236° |
| 2026-04-28 14:47 | -14.29984 | -29.76260 | 34080 ft | 493 kts | 236° |
| 2026-04-28 14:48 | -14.33651 | -29.82286 | 34071 ft | 493 kts | 236° |
| 2026-04-28 14:48 | -14.37266 | -29.88233 | 34076 ft | 493 kts | 236° |
| 2026-04-28 14:49 | -14.40906 | -29.94222 | 34078 ft | 493 kts | 236° |
| 2026-04-28 14:49 | -14.44546 | -30.00217 | 34075 ft | 493 kts | 236° |
| 2026-04-28 14:50 | -14.48187 | -30.06218 | 34080 ft | 493 kts | 236° |
| 2026-04-28 14:50 | -14.51823 | -30.12216 | 34078 ft | 493 kts | 235° |
| 2026-04-28 14:51 | -14.55465 | -30.18227 | 34076 ft | 494 kts | 236° |
| 2026-04-28 14:51 | -14.59103 | -30.24235 | 34080 ft | 494 kts | 236° |
| 2026-04-28 14:52 | -14.62738 | -30.30244 | 34088 ft | 493 kts | 237° |
| 2026-04-28 14:52 | -14.66372 | -30.36259 | 34080 ft | 494 kts | 237° |
| 2026-04-28 14:53 | -14.70003 | -30.42272 | 34083 ft | 494 kts | 236° |
| 2026-04-28 14:53 | -14.73639 | -30.48294 | 34088 ft | 494 kts | 236° |
| 2026-04-28 14:54 | -14.77270 | -30.54315 | 34081 ft | 494 kts | 237° |
| 2026-04-28 14:54 | -14.80899 | -30.60338 | 34088 ft | 494 kts | 236° |
| 2026-04-28 14:55 | -14.84523 | -30.66357 | 34084 ft | 493 kts | 236° |
| 2026-04-28 14:55 | -14.88146 | -30.72377 | 34085 ft | 493 kts | 237° |
| 2026-04-28 14:56 | -14.91766 | -30.78397 | 34093 ft | 493 kts | 237° |
| 2026-04-28 14:56 | -14.95385 | -30.84421 | 34088 ft | 493 kts | 237° |
| 2026-04-28 14:57 | -14.99006 | -30.90453 | 34095 ft | 494 kts | 236° |
| 2026-04-28 14:57 | -15.02602 | -30.96449 | 34058 ft | 494 kts | 237° |
| 2026-04-28 14:58 | -15.06221 | -31.02486 | 34055 ft | 494 kts | 237° |
| 2026-04-28 14:58 | -15.09831 | -31.08514 | 34055 ft | 493 kts | 237° |
| 2026-04-28 14:59 | -15.13444 | -31.14551 | 34057 ft | 493 kts | 238° |
| 2026-04-28 14:59 | -15.17050 | -31.20582 | 34058 ft | 492 kts | 238° |
| 2026-04-28 15:00 | -15.20653 | -31.26612 | 34056 ft | 492 kts | 237° |
| 2026-04-28 15:00 | -15.24250 | -31.32637 | 34063 ft | 492 kts | 237° |
| 2026-04-28 15:01 | -15.27847 | -31.38667 | 34064 ft | 492 kts | 238° |
| 2026-04-28 15:01 | -15.31443 | -31.44699 | 34060 ft | 492 kts | 238° |
| 2026-04-28 15:02 | -15.35036 | -31.50732 | 34059 ft | 492 kts | 238° |
| 2026-04-28 15:02 | -15.38622 | -31.56758 | 34064 ft | 491 kts | 238° |
| 2026-04-28 15:03 | -15.42203 | -31.62780 | 34062 ft | 491 kts | 238° |
| 2026-04-28 15:03 | -15.45783 | -31.68805 | 34062 ft | 490 kts | 238° |
| 2026-04-28 15:04 | -15.49355 | -31.74823 | 34064 ft | 490 kts | 238° |
| 2026-04-28 15:04 | -15.52902 | -31.80803 | 34062 ft | 490 kts | 238° |
| 2026-04-28 15:05 | -15.56465 | -31.86815 | 34060 ft | 489 kts | 238° |
| 2026-04-28 15:05 | -15.60025 | -31.92825 | 34063 ft | 489 kts | 238° |
| 2026-04-28 15:06 | -15.63578 | -31.98828 | 34063 ft | 488 kts | 238° |
| 2026-04-28 15:06 | -15.67127 | -32.04830 | 34062 ft | 488 kts | 238° |
| 2026-04-28 15:07 | -15.70672 | -32.10832 | 34067 ft | 488 kts | 238° |
| 2026-04-28 15:07 | -15.74217 | -32.16840 | 34062 ft | 487 kts | 238° |
| 2026-04-28 15:08 | -15.77752 | -32.22836 | 34068 ft | 487 kts | 238° |
| 2026-04-28 15:08 | -15.81282 | -32.28828 | 34062 ft | 486 kts | 238° |
| 2026-04-28 15:09 | -15.84803 | -32.34810 | 34064 ft | 485 kts | 238° |
| 2026-04-28 15:09 | -15.88317 | -32.40786 | 34067 ft | 484 kts | 238° |
| 2026-04-28 15:10 | -15.91822 | -32.46750 | 34064 ft | 484 kts | 238° |
| 2026-04-28 15:10 | -15.95324 | -32.52714 | 34068 ft | 484 kts | 238° |
| 2026-04-28 15:11 | -15.98827 | -32.58683 | 34071 ft | 484 kts | 238° |
| 2026-04-28 15:11 | -16.02326 | -32.64653 | 34070 ft | 484 kts | 238° |
| 2026-04-28 15:12 | -16.05825 | -32.70627 | 34064 ft | 484 kts | 238° |
| 2026-04-28 15:12 | -16.09319 | -32.76598 | 34067 ft | 483 kts | 238° |
| 2026-04-28 15:13 | -16.12809 | -32.82565 | 34075 ft | 483 kts | 238° |
| 2026-04-28 15:13 | -16.16274 | -32.88495 | 34070 ft | 483 kts | 238° |
| 2026-04-28 15:14 | -16.19757 | -32.94462 | 34065 ft | 483 kts | 238° |
| 2026-04-28 15:14 | -16.23237 | -33.00426 | 34073 ft | 482 kts | 239° |
| 2026-04-28 15:15 | -16.26710 | -33.06386 | 34070 ft | 481 kts | 238° |
| 2026-04-28 15:15 | -16.30174 | -33.12333 | 34065 ft | 480 kts | 239° |
| 2026-04-28 15:16 | -16.33633 | -33.18278 | 34076 ft | 480 kts | 239° |
| 2026-04-28 15:16 | -16.37092 | -33.24228 | 34077 ft | 480 kts | 239° |
| 2026-04-28 15:17 | -16.40548 | -33.30178 | 34071 ft | 480 kts | 239° |
| 2026-04-28 15:17 | -16.44002 | -33.36128 | 34070 ft | 480 kts | 239° |
| 2026-04-28 15:18 | -16.47458 | -33.42087 | 34081 ft | 480 kts | 239° |
| 2026-04-28 15:18 | -16.50910 | -33.48045 | 34076 ft | 480 kts | 239° |
| 2026-04-28 15:19 | -16.54355 | -33.53995 | 34066 ft | 479 kts | 239° |
| 2026-04-28 15:19 | -16.57793 | -33.59940 | 34074 ft | 479 kts | 239° |
| 2026-04-28 15:20 | -16.61233 | -33.65892 | 34076 ft | 479 kts | 239° |
| 2026-04-28 15:20 | -16.64673 | -33.71849 | 34071 ft | 480 kts | 239° |
| 2026-04-28 15:21 | -16.68114 | -33.77812 | 34074 ft | 479 kts | 239° |
| 2026-04-28 15:21 | -16.71549 | -33.83770 | 34082 ft | 478 kts | 239° |
| 2026-04-28 15:22 | -16.74393 | -33.88708 | 34068 ft | 478 kts | 239° |
| 2026-04-28 15:22 | -16.77813 | -33.94649 | 34078 ft | 477 kts | 239° |
| 2026-04-28 15:23 | -16.81785 | -34.01557 | 34077 ft | 478 kts | 239° |
| 2026-04-28 15:23 | -16.84652 | -34.06547 | 34076 ft | 478 kts | 239° |
| 2026-04-28 15:24 | -16.88071 | -34.12503 | 34067 ft | 479 kts | 239° |
| 2026-04-28 15:24 | -16.91492 | -34.18467 | 34080 ft | 478 kts | 239° |
| 2026-04-28 15:25 | -16.94908 | -34.24428 | 34073 ft | 478 kts | 239° |
| 2026-04-28 15:25 | -16.98319 | -34.30384 | 34066 ft | 478 kts | 239° |
| 2026-04-28 15:26 | -17.01726 | -34.36340 | 34078 ft | 477 kts | 239° |
| 2026-04-28 15:26 | -17.05112 | -34.42262 | 34080 ft | 478 kts | 240° |
| 2026-04-28 15:27 | -17.08516 | -34.48223 | 34067 ft | 478 kts | 239° |
| 2026-04-28 15:27 | -17.11923 | -34.54193 | 34071 ft | 478 kts | 240° |
| 2026-04-28 15:28 | -17.15327 | -34.60165 | 34080 ft | 478 kts | 240° |
| 2026-04-28 15:28 | -17.18727 | -34.66133 | 34071 ft | 478 kts | 240° |
| 2026-04-28 15:29 | -17.22124 | -34.72103 | 34073 ft | 478 kts | 240° |
| 2026-04-28 15:29 | -17.25523 | -34.78080 | 34078 ft | 478 kts | 240° |
| 2026-04-28 15:30 | -17.28919 | -34.84059 | 34077 ft | 478 kts | 240° |
| 2026-04-28 15:30 | -17.32314 | -34.90040 | 34074 ft | 478 kts | 240° |
| 2026-04-28 15:31 | -17.35706 | -34.96022 | 34081 ft | 478 kts | 240° |
| 2026-04-28 15:31 | -17.39097 | -35.02007 | 34075 ft | 478 kts | 240° |
| 2026-04-28 15:32 | -17.42464 | -35.07955 | 34065 ft | 478 kts | 240° |
| 2026-04-28 15:32 | -17.45874 | -35.13984 | 34075 ft | 478 kts | 240° |
| 2026-04-28 15:33 | -17.49258 | -35.19974 | 34079 ft | 478 kts | 240° |
| 2026-04-28 15:33 | -17.52639 | -35.25962 | 34062 ft | 478 kts | 240° |
| 2026-04-28 15:34 | -17.56017 | -35.31952 | 34076 ft | 477 kts | 240° |
| 2026-04-28 15:34 | -17.59374 | -35.37908 | 34081 ft | 477 kts | 240° |
| 2026-04-28 15:35 | -17.62770 | -35.43941 | 34068 ft | 477 kts | 240° |
| 2026-04-28 15:35 | -17.67803 | -35.52891 | 34070 ft | 477 kts | 240° |
| 2026-04-28 15:36 | -17.71169 | -35.58884 | 34070 ft | 477 kts | 240° |
| 2026-04-28 15:36 | -17.74534 | -35.64878 | 34083 ft | 477 kts | 240° |
| 2026-04-28 15:37 | -17.77896 | -35.70874 | 34075 ft | 477 kts | 240° |
| 2026-04-28 15:37 | -17.81256 | -35.76873 | 34067 ft | 477 kts | 240° |
| 2026-04-28 15:38 | -17.84613 | -35.82871 | 34079 ft | 476 kts | 240° |
| 2026-04-28 15:38 | -17.87968 | -35.88872 | 34073 ft | 477 kts | 240° |
| 2026-04-28 15:39 | -17.91323 | -35.94877 | 34067 ft | 477 kts | 240° |
| 2026-04-28 15:39 | -17.94674 | -36.00882 | 34078 ft | 477 kts | 240° |
| 2026-04-28 15:40 | -17.98024 | -36.06889 | 34074 ft | 477 kts | 240° |
| 2026-04-28 15:40 | -18.01373 | -36.12901 | 34070 ft | 477 kts | 240° |
| 2026-04-28 15:41 | -18.04718 | -36.18911 | 34077 ft | 477 kts | 240° |
| 2026-04-28 15:41 | -18.08064 | -36.24928 | 34080 ft | 476 kts | 240° |
| 2026-04-28 15:42 | -18.11404 | -36.30942 | 34075 ft | 477 kts | 240° |
| 2026-04-28 15:42 | -18.14744 | -36.36959 | 34078 ft | 476 kts | 240° |
| 2026-04-28 15:43 | -18.18082 | -36.42980 | 34088 ft | 476 kts | 240° |
| 2026-04-28 15:43 | -18.21421 | -36.49007 | 34078 ft | 477 kts | 240° |
| 2026-04-28 15:44 | -18.24751 | -36.55025 | 34078 ft | 476 kts | 240° |
| 2026-04-28 15:44 | -18.28084 | -36.61054 | 34087 ft | 476 kts | 240° |
| 2026-04-28 15:45 | -18.31416 | -36.67085 | 34075 ft | 477 kts | 240° |
| 2026-04-28 15:45 | -18.34745 | -36.73117 | 34080 ft | 477 kts | 240° |
| 2026-04-28 15:46 | -18.38078 | -36.79164 | 34089 ft | 477 kts | 240° |
| 2026-04-28 15:46 | -18.41408 | -36.85209 | 34080 ft | 477 kts | 240° |
| 2026-04-28 15:47 | -18.44732 | -36.91250 | 34077 ft | 477 kts | 240° |
| 2026-04-28 15:47 | -18.48056 | -36.97297 | 34080 ft | 476 kts | 240° |
| 2026-04-28 15:48 | -18.51350 | -37.03295 | 34083 ft | 476 kts | 240° |
| 2026-04-28 15:48 | -18.54669 | -37.09345 | 34078 ft | 477 kts | 240° |
| 2026-04-28 15:49 | -18.57988 | -37.15398 | 34083 ft | 477 kts | 240° |
| 2026-04-28 15:49 | -18.61306 | -37.21458 | 34080 ft | 478 kts | 240° |
| 2026-04-28 15:50 | -18.64625 | -37.27526 | 34079 ft | 478 kts | 240° |
| 2026-04-28 15:50 | -18.67947 | -37.33605 | 34084 ft | 478 kts | 240° |
| 2026-04-28 15:51 | -18.71269 | -37.39688 | 34076 ft | 478 kts | 240° |
| 2026-04-28 15:51 | -18.74588 | -37.45773 | 34076 ft | 478 kts | 240° |
| 2026-04-28 15:52 | -18.77902 | -37.51855 | 34078 ft | 478 kts | 240° |
| 2026-04-28 15:52 | -18.81212 | -37.57937 | 34083 ft | 478 kts | 241° |
| 2026-04-28 15:53 | -18.84517 | -37.64016 | 34081 ft | 478 kts | 241° |
| 2026-04-28 15:53 | -18.87822 | -37.70099 | 34084 ft | 477 kts | 241° |
| 2026-04-28 15:54 | -18.91120 | -37.76184 | 34082 ft | 477 kts | 241° |
| 2026-04-28 15:54 | -18.94414 | -37.82269 | 34081 ft | 477 kts | 241° |
| 2026-04-28 15:55 | -18.97707 | -37.88360 | 34084 ft | 477 kts | 241° |
| 2026-04-28 15:55 | -19.00995 | -37.94446 | 34085 ft | 477 kts | 241° |
| 2026-04-28 15:56 | -19.04280 | -38.00534 | 34084 ft | 477 kts | 241° |
| 2026-04-28 15:56 | -19.07566 | -38.06629 | 34081 ft | 477 kts | 241° |
| 2026-04-28 15:57 | -19.10826 | -38.12682 | 34089 ft | 477 kts | 241° |
| 2026-04-28 15:57 | -19.14102 | -38.18771 | 34081 ft | 477 kts | 241° |
| 2026-04-28 15:58 | -19.17379 | -38.24868 | 34082 ft | 476 kts | 241° |
| 2026-04-28 15:58 | -19.20650 | -38.30959 | 34081 ft | 476 kts | 241° |
| 2026-04-28 15:59 | -19.23383 | -38.36054 | 34082 ft | 476 kts | 241° |
| 2026-04-28 15:59 | -19.27179 | -38.43138 | 34081 ft | 476 kts | 241° |
| 2026-04-28 16:00 | -19.30443 | -38.49233 | 34087 ft | 475 kts | 242° |
| 2026-04-28 16:00 | -19.33699 | -38.55323 | 34084 ft | 475 kts | 242° |
| 2026-04-28 16:01 | -19.36949 | -38.61406 | 34082 ft | 475 kts | 242° |
| 2026-04-28 16:01 | -19.40200 | -38.67498 | 34077 ft | 475 kts | 242° |
| 2026-04-28 16:02 | -19.43446 | -38.73586 | 34081 ft | 475 kts | 242° |
| 2026-04-28 16:02 | -19.46691 | -38.79679 | 34089 ft | 474 kts | 242° |
| 2026-04-28 16:03 | -19.49930 | -38.85767 | 34084 ft | 474 kts | 242° |
| 2026-04-28 16:03 | -19.53171 | -38.91866 | 34080 ft | 474 kts | 242° |
| 2026-04-28 16:04 | -19.56407 | -38.97961 | 34082 ft | 474 kts | 242° |
| 2026-04-28 16:04 | -19.59094 | -39.03026 | 34081 ft | 474 kts | 242° |
| 2026-04-28 16:05 | -19.61267 | -39.07126 | 34239 ft | 478 kts | 242° |
| 2026-04-28 16:05 | -19.62896 | -39.10201 | 34584 ft | 477 kts | 242° |
| 2026-04-28 16:05 | -19.64514 | -39.13258 | 34995 ft | 474 kts | 242° |
| 2026-04-28 16:05 | -19.66122 | -39.16296 | 35413 ft | 471 kts | 242° |
| 2026-04-28 16:06 | -19.67722 | -39.19319 | 35799 ft | 469 kts | 242° |
| 2026-04-28 16:06 | -19.69318 | -39.22339 | 36006 ft | 471 kts | 242° |
| 2026-04-28 16:06 | -19.72539 | -39.28441 | 36069 ft | 474 kts | 242° |
| 2026-04-28 16:07 | -19.75725 | -39.34477 | 36067 ft | 468 kts | 242° |
| 2026-04-28 16:08 | -19.80476 | -39.43494 | 36078 ft | 465 kts | 242° |
| 2026-04-28 16:08 | -19.83631 | -39.49490 | 36082 ft | 465 kts | 242° |
| 2026-04-28 16:09 | -19.88365 | -39.58502 | 36076 ft | 466 kts | 242° |
| 2026-04-28 16:10 | -19.93103 | -39.67540 | 36078 ft | 467 kts | 242° |
| 2026-04-28 16:10 | -19.97425 | -39.75526 | 36072 ft | 469 kts | 242° |
| 2026-04-28 16:11 | -20.03952 | -39.87544 | 36065 ft | 470 kts | 242° |
| 2026-04-28 16:12 | -20.08835 | -39.96589 | 36068 ft | 470 kts | 242° |
| 2026-04-28 16:13 | -20.13717 | -40.05647 | 36043 ft | 470 kts | 242° |
| 2026-04-28 16:14 | -20.20217 | -40.17728 | 36024 ft | 470 kts | 242° |
| 2026-04-28 16:15 | -20.26931 | -40.29668 | 36024 ft | 471 kts | 234° |
| 2026-04-28 16:15 | -20.31196 | -40.34989 | 36067 ft | 472 kts | 230° |
| 2026-04-28 16:16 | -20.37706 | -40.42877 | 36071 ft | 473 kts | 231° |
| 2026-04-28 16:17 | -20.44138 | -40.50778 | 36076 ft | 472 kts | 231° |
| 2026-04-28 16:17 | -20.48431 | -40.56068 | 36076 ft | 472 kts | 231° |
| 2026-04-28 16:18 | -20.52726 | -40.61366 | 36084 ft | 472 kts | 231° |
| 2026-04-28 16:18 | -20.57017 | -40.66662 | 36091 ft | 472 kts | 231° |
| 2026-04-28 16:19 | -20.61313 | -40.71969 | 36079 ft | 472 kts | 231° |
| 2026-04-28 16:19 | -20.65600 | -40.77270 | 36080 ft | 471 kts | 231° |
| 2026-04-28 16:20 | -20.69878 | -40.82562 | 36085 ft | 470 kts | 231° |
| 2026-04-28 16:20 | -20.74230 | -40.87770 | 36087 ft | 470 kts | 230° |
| 2026-04-28 16:21 | -20.78615 | -40.92952 | 36070 ft | 470 kts | 230° |
| 2026-04-28 16:21 | -20.82985 | -40.98155 | 36073 ft | 471 kts | 230° |
| 2026-04-28 16:22 | -20.87354 | -41.03374 | 36064 ft | 471 kts | 230° |
| 2026-04-28 16:22 | -20.91718 | -41.08616 | 36067 ft | 472 kts | 231° |
| 2026-04-28 16:23 | -20.96077 | -41.13863 | 36068 ft | 472 kts | 231° |
| 2026-04-28 16:23 | -21.00435 | -41.19111 | 36062 ft | 472 kts | 231° |
| 2026-04-28 16:24 | -21.04792 | -41.24361 | 36059 ft | 472 kts | 231° |
| 2026-04-28 16:24 | -21.09145 | -41.29612 | 36066 ft | 471 kts | 231° |
| 2026-04-28 16:25 | -21.13484 | -41.34850 | 36059 ft | 470 kts | 231° |
| 2026-04-28 16:25 | -21.17796 | -41.40063 | 36060 ft | 470 kts | 231° |
| 2026-04-28 16:26 | -21.22123 | -41.45297 | 36057 ft | 469 kts | 231° |
| 2026-04-28 16:26 | -21.26448 | -41.50535 | 36060 ft | 469 kts | 231° |
| 2026-04-28 16:27 | -21.30772 | -41.55774 | 36060 ft | 469 kts | 231° |
| 2026-04-28 16:28 | -21.37259 | -41.63618 | 36059 ft | 468 kts | 231° |
| 2026-04-28 16:28 | -21.41581 | -41.68849 | 36056 ft | 468 kts | 231° |
| 2026-04-28 16:29 | -21.48054 | -41.76697 | 36069 ft | 468 kts | 232° |
| 2026-04-28 16:30 | -21.54522 | -41.84551 | 36056 ft | 468 kts | 232° |
| 2026-04-28 16:30 | -21.58831 | -41.89790 | 36065 ft | 467 kts | 232° |
| 2026-04-28 16:31 | -21.63131 | -41.95023 | 36062 ft | 467 kts | 232° |
| 2026-04-28 16:31 | -21.67422 | -42.00252 | 36075 ft | 466 kts | 232° |
| 2026-04-28 16:32 | -21.71711 | -42.05483 | 36068 ft | 466 kts | 232° |
| 2026-04-28 16:32 | -21.78138 | -42.13329 | 36066 ft | 465 kts | 232° |
| 2026-04-28 16:33 | -21.81682 | -42.17675 | 36069 ft | 464 kts | 233° |
| 2026-04-28 16:33 | -21.85822 | -42.24314 | 36071 ft | 458 kts | 246° |
| 2026-04-28 16:34 | -21.88605 | -42.30470 | 36081 ft | 457 kts | 247° |
| 2026-04-28 16:34 | -21.91378 | -42.36644 | 36079 ft | 458 kts | 247° |
| 2026-04-28 16:35 | -21.94178 | -42.42815 | 36069 ft | 459 kts | 246° |
| 2026-04-28 16:35 | -21.96990 | -42.48995 | 36098 ft | 459 kts | 247° |
| 2026-04-28 16:36 | -21.99795 | -42.55168 | 36094 ft | 459 kts | 247° |
| 2026-04-28 16:36 | -22.02600 | -42.61350 | 36099 ft | 459 kts | 247° |
| 2026-04-28 16:37 | -22.05401 | -42.67532 | 36097 ft | 459 kts | 247° |
| 2026-04-28 16:38 | -22.09638 | -42.76788 | 36096 ft | 459 kts | 246° |
| 2026-04-28 16:38 | -22.12476 | -42.82940 | 36075 ft | 458 kts | 247° |
| 2026-04-28 16:39 | -22.15300 | -42.89083 | 36105 ft | 457 kts | 247° |
| 2026-04-28 16:39 | -22.18113 | -42.95219 | 36082 ft | 456 kts | 247° |
| 2026-04-28 16:40 | -22.20924 | -43.01358 | 36086 ft | 455 kts | 247° |
| 2026-04-28 16:40 | -22.23705 | -43.07442 | 36081 ft | 455 kts | 247° |
| 2026-04-28 16:41 | -22.26507 | -43.13572 | 36092 ft | 455 kts | 247° |
| 2026-04-28 16:41 | -22.29303 | -43.19692 | 36085 ft | 455 kts | 247° |
| 2026-04-28 16:42 | -22.32096 | -43.25821 | 36089 ft | 455 kts | 247° |
| 2026-04-28 16:42 | -22.34891 | -43.31956 | 36088 ft | 455 kts | 247° |
| 2026-04-28 16:43 | -22.37679 | -43.38089 | 36088 ft | 455 kts | 247° |
| 2026-04-28 16:43 | -22.40472 | -43.44240 | 36088 ft | 455 kts | 247° |
| 2026-04-28 16:44 | -22.43256 | -43.50379 | 36084 ft | 455 kts | 247° |
| 2026-04-28 16:44 | -22.46036 | -43.56515 | 36084 ft | 454 kts | 247° |
| 2026-04-28 16:45 | -22.48815 | -43.62650 | 36083 ft | 454 kts | 247° |
| 2026-04-28 16:45 | -22.51588 | -43.68785 | 36081 ft | 454 kts | 247° |
| 2026-04-28 16:46 | -22.54360 | -43.74931 | 36084 ft | 454 kts | 248° |
| 2026-04-28 16:46 | -22.57129 | -43.81072 | 36074 ft | 454 kts | 248° |
| 2026-04-28 16:47 | -22.59895 | -43.87213 | 36078 ft | 453 kts | 248° |
| 2026-04-28 16:47 | -22.62648 | -43.93336 | 36081 ft | 452 kts | 248° |
| 2026-04-28 16:48 | -22.65378 | -43.99415 | 36090 ft | 452 kts | 248° |
| 2026-04-28 16:48 | -22.68120 | -44.05529 | 36089 ft | 451 kts | 248° |
| 2026-04-28 16:49 | -22.70857 | -44.11639 | 36085 ft | 451 kts | 248° |
| 2026-04-28 16:49 | -22.73436 | -44.17806 | 36081 ft | 448 kts | 251° |
| 2026-04-28 16:50 | -22.75781 | -44.24051 | 36079 ft | 448 kts | 251° |
| 2026-04-28 16:50 | -22.78112 | -44.30301 | 36094 ft | 448 kts | 251° |